Flight Track Log - Related Links

Times and Time Zones

All times are in EDT time to prevent confusion due to time zone crossing. See the N8800G flight status page for this flight to view local times or setup timezone preferences in your user account.

Time Position Orientation Groundspeed Altitude Reporting Facility
EDT Latitude Longitude Course Direction KTS MPH feet Rate Location/Type
Sun 10:11:24 AM 42.2058 -83.3556 276° West 149 171 1,300  Level Cleveland Center
Sun 10:12:49 AM 42.1600 -83.4375 233° Southwest 236 272 4,200 2,589 Climbing Cleveland Center
Sun 10:13:50 AM 42.1450 -83.5322 258° West 281 323 7,600 3,414 Climbing Cleveland Center
Sun 10:14:00 AM 42.2241 -83.7530 276° West  Level FlightAware Approximate
Sun 10:14:45 AM 42.1592 -83.6281 281° West 289 333 10,800  Level Cleveland Center
Sun 10:15:00 AM 42.2337 -83.8879 276° West  Level FlightAware Approximate
Sun 10:15:07 AM 42.1686 -83.6733 286° West 292 336 11,700  Level Cleveland Center
Sun 10:16:00 AM 42.2434 -84.0229 276° West  Level FlightAware Approximate
Sun 10:16:07 AM 42.1867 -83.7753 283° West 308 354 13,000  Level Cleveland Center
Sun 10:17:07 AM 42.2100 -83.9081 283° West 333 383 14,100 1,350 Climbing Cleveland Center
Sun 10:18:07 AM 42.2247 -84.0408 279° West 353 406 15,700 1,650 Climbing Cleveland Center
Sun 10:19:07 AM 42.2019 -84.1683 256° West 358 412 17,400 1,400 Climbing Cleveland Center
Sun 10:20:07 AM 42.1750 -84.3014 255° West 358 412 18,500 2,300 Climbing Cleveland Center
Sun 10:21:07 AM 42.1494 -84.4372 256° West 368 423 22,000 1,235 Climbing Cleveland Center
Sun 10:21:49 AM 42.1400 -84.4997 259° West 368 423 20,600  Descending Chicago Center
Sun 10:22:51 AM 42.1081 -84.6592 255° West 366 421 22,000 677 Climbing Chicago Center
Sun 10:23:53 AM 42.0811 -84.7969 255° West 377 434 22,000  Level Chicago Center
Sun 10:24:55 AM 42.0531 -84.9389 255° West 390 449 22,000  Level Chicago Center
Sun 10:25:56 AM 42.0228 -85.0803 254° West 393 452 22,000  Level Chicago Center
Sun 10:26:58 AM 41.9800 -85.2342 250° West 390 449 22,000  Level Chicago Center
Sun 10:28:00 AM 41.9442 -85.3731 251° West 395 455 22,000  Level Chicago Center
Sun 10:29:02 AM 41.9069 -85.5089 250° West 394 453 22,000  Level Chicago Center
Sun 10:30:04 AM 41.8694 -85.6431 249° West 391 450 22,000  Level Chicago Center
Sun 10:31:06 AM 41.8322 -85.7775 250° West 391 450 22,000  Level Chicago Center
Sun 10:32:08 AM 41.7878 -85.9386 250° West 389 448 22,000  Level Chicago Center
Sun 10:33:10 AM 41.7506 -86.0725 250° West 388 447 22,000  Level Chicago Center
Sun 10:34:12 AM 41.7125 -86.2053 249° West 386 444 22,000  Level Chicago Center
Sun 10:35:13 AM 41.6747 -86.3397 249° West 389 448 22,000  Level Chicago Center
Sun 10:36:15 AM 41.6372 -86.4736 249° West 386 444 22,000  Level Chicago Center
Sun 10:37:17 AM 41.5981 -86.6072 249° West 390 449 22,000  Level Chicago Center
Sun 10:38:19 AM 41.5508 -86.7711 249° West 387 445 22,000  Level Chicago Center
Sun 10:39:21 AM 41.5119 -86.9028 249° West 385 443 22,000  Level Chicago Center
Sun 10:40:23 AM 41.4761 -87.0306 250° West 372 428 22,000  Level Chicago Center
Sun 10:41:25 AM 41.4414 -87.1533 249° West 359 413 22,000  Level Chicago Center
Sun 10:42:26 AM 41.4044 -87.2764 248° West 360 414 22,000  Level Chicago Center
Sun 10:43:28 AM 41.3686 -87.3992 249° West 360 414 22,000 -435 Level Chicago Center
Sun 10:44:30 AM 41.3261 -87.5467 249° West 359 413 21,100 -774 Descending Chicago Center
Sun 10:45:32 AM 41.2900 -87.6692 249° West 357 411 20,400 -532 Descending Chicago Center
Sun 10:46:34 AM 41.2525 -87.7936 248° West 363 418 20,000 -195 Descending Chicago Center
Sun 10:47:35 AM 41.2139 -87.9211 248° West 370 426 20,000  Level Chicago Center
Sun 10:48:37 AM 41.1758 -88.0492 248° West 373 429 20,000  Level Chicago Center
Sun 10:49:39 AM 41.1361 -88.1781 248° West 376 433 20,000  Level Chicago Center
Sun 10:50:41 AM 41.0981 -88.3050 248° West 372 428 20,000 -49 Level Chicago Center
Sun 10:51:42 AM 41.0597 -88.4325 248° West 373 429 19,900 -976 Descending Chicago Center
Sun 10:52:44 AM 41.0158 -88.5733 248° West 346 398 18,000 -1,694 Descending Chicago Center
Sun 10:53:46 AM 40.9814 -88.6881 248° West 336 387 16,400 -1,548 Descending Chicago Center
Sun 10:54:48 AM 40.9464 -88.8019 248° West 335 386 14,800 -1,659 Descending Chicago Center
Sun 10:55:49 AM 40.9089 -88.9203 247° West 335 386 13,000 -1,659 Descending Chicago Center
Sun 10:56:51 AM 40.8822 -89.0283 252° West 315 362 11,400 -1,645 Descending Chicago Center
Sun 10:57:53 AM 40.8572 -89.1261 251° West 288 331 9,600 -1,756 Descending Chicago Center
Sun 10:58:54 AM 40.8336 -89.2233 252° West 281 323 7,800 -1,756 Descending Chicago Center
Sun 10:59:56 AM 40.8100 -89.3178 252° West 274 315 6,000 -1,728 Descending Chicago Center
Sun 11:00:59 AM 40.7867 -89.4083 251° West 265 305 4,200 -1,200 Descending Chicago Center
Sun 11:02:01 AM 40.7622 -89.5044 251° West 227 261 3,500 -581 Descending Chicago Center
Sun 11:03:03 AM 40.7489 -89.5664 254° West 198 228 3,000 -634 Descending Chicago Center
Sun 11:04:04 AM 40.7272 -89.6178 241° Southwest 178 205 2,200 -787 Descending Chicago Center

Login

Don't have an account? Register now (free) for customized features, flight alerts, and more!